createdAt,value
2022-11-01T00:01:19.292Z,76.62
2022-11-01T00:04:06.088Z,75.86
2022-11-01T00:06:52.789Z,77.11
2022-11-01T00:09:39.611Z,76.70
2022-11-01T00:12:26.461Z,77.24
2022-11-01T00:15:13.229Z,76.55
2022-11-01T00:17:59.936Z,76.74
2022-11-01T00:20:46.654Z,76.40
2022-11-01T00:23:33.466Z,76.50
2022-11-01T00:26:21.239Z,76.96
2022-11-01T00:29:08.972Z,76.84
2022-11-01T00:31:55.719Z,76.77
2022-11-01T00:34:42.454Z,76.14
2022-11-01T00:37:29.202Z,76.55
2022-11-01T00:40:15.954Z,76.78
2022-11-01T00:43:02.658Z,76.81
2022-11-01T00:45:49.361Z,77.41
2022-11-01T00:48:36.217Z,76.62
2022-11-01T00:51:23.096Z,77.30
2022-11-01T00:54:10.158Z,76.63
2022-11-01T00:56:56.977Z,76.78
2022-11-01T00:59:43.734Z,77.05
2022-11-01T01:02:30.689Z,77.58
2022-11-01T01:05:17.495Z,77.07
2022-11-01T01:08:04.336Z,77.53
2022-11-01T01:10:51.077Z,76.78
2022-11-01T01:13:37.875Z,77.78
2022-11-01T01:16:29.902Z,77.78
2022-11-01T01:19:18.429Z,77.19
2022-11-01T01:22:05.146Z,77.64
2022-11-01T01:24:52.210Z,77.77
2022-11-01T01:27:38.962Z,77.33
2022-11-01T01:30:29.656Z,77.85
2022-11-01T01:33:16.343Z,77.39
2022-11-01T01:36:03.055Z,77.36
2022-11-01T01:38:50.270Z,78.16
2022-11-01T01:41:35.335Z,77.59
2022-11-01T01:44:22.043Z,77.31
2022-11-01T01:47:08.845Z,77.16
2022-11-01T01:49:55.836Z,77.30
2022-11-01T01:52:43.194Z,77.78
2022-11-01T01:55:33.359Z,77.44
2022-11-01T01:58:20.146Z,78.02
2022-11-01T02:01:06.958Z,78.20
2022-11-01T02:03:55.786Z,77.88
2022-11-01T02:06:44.569Z,77.27
2022-11-01T02:09:31.902Z,77.07
2022-11-01T02:12:18.676Z,77.12
2022-11-01T02:15:06.147Z,77.82
2022-11-01T02:17:58.364Z,78.10
2022-11-01T02:21:43.007Z,77.09
2022-11-01T02:24:50.237Z,77.44
2022-11-01T02:27:36.878Z,77.35
2022-11-01T02:30:37.194Z,76.93
2022-11-01T02:33:50.106Z,76.84
2022-11-01T02:36:46.139Z,76.89
2022-11-01T02:39:43.322Z,77.58
2022-11-01T02:42:35.464Z,76.86
2022-11-01T02:45:48.997Z,77.28
2022-11-01T02:48:38.676Z,77.37
2022-11-01T02:51:25.839Z,77.68
2022-11-01T02:54:12.579Z,76.93
2022-11-01T02:57:00.247Z,77.37
2022-11-01T02:59:48.385Z,76.93
2022-11-01T03:02:47.775Z,78.14
2022-11-01T03:05:41.605Z,76.99
2022-11-01T03:08:32.649Z,77.05
2022-11-01T03:11:40.805Z,77.73
2022-11-01T03:15:02.093Z,77.14
2022-11-01T03:18:02.154Z,78.21
2022-11-01T03:21:07.849Z,78.29
2022-11-01T03:24:03.473Z,77.22
2022-11-01T03:26:53.723Z,77.13
2022-11-01T03:29:43.605Z,78.01
2022-11-01T03:32:31.109Z,77.34
2022-11-01T03:35:21.266Z,78.26
2022-11-01T03:38:11.651Z,77.10
2022-11-01T03:41:04.596Z,77.67
2022-11-01T03:43:55.531Z,77.60
2022-11-01T03:46:42.549Z,78.11
2022-11-01T03:49:29.298Z,78.19
2022-11-01T03:52:16.029Z,77.47
2022-11-01T06:34:09.615Z,77.98
2022-11-01T06:36:36.408Z,77.84
2022-11-01T06:39:03.273Z,78.11
2022-11-01T06:41:49.992Z,77.35
2022-11-01T06:44:36.694Z,78.41
2022-11-01T06:47:23.670Z,77.33
2022-11-01T06:50:10.507Z,77.82
2022-11-01T06:52:57.281Z,78.08
2022-11-01T06:55:44.949Z,78.29
2022-11-01T06:58:31.693Z,78.22
2022-11-01T07:01:21.680Z,78.52
2022-11-01T07:07:05.047Z,77.65
2022-11-01T07:09:51.741Z,77.33
2022-11-01T07:12:38.807Z,78.10
2022-11-01T07:15:25.854Z,78.18
2022-11-01T07:18:19.810Z,77.60
2022-11-01T07:21:06.508Z,77.81
2022-11-01T07:23:53.271Z,77.22
2022-11-01T07:26:40.640Z,77.64
2022-11-01T07:29:27.372Z,77.71
2022-11-01T07:32:14.074Z,78.62
2022-11-01T07:35:00.780Z,77.31
2022-11-01T07:37:50.519Z,77.14
2022-11-01T07:40:37.964Z,77.61
2022-11-01T07:43:26.413Z,77.75
2022-11-01T07:46:13.128Z,78.61
2022-11-01T07:48:59.840Z,78.49
2022-11-01T07:51:46.641Z,77.29
2022-11-01T07:54:33.432Z,77.51
2022-11-01T07:57:20.134Z,78.76
2022-11-01T08:00:06.847Z,78.28
2022-11-01T08:02:59.337Z,77.82
2022-11-01T08:05:46.154Z,77.38
2022-11-01T08:17:03.501Z,78.19
2022-11-01T08:19:50.426Z,77.54
2022-11-01T08:22:37.405Z,77.96
2022-11-01T08:25:24.538Z,78.27
2022-11-01T08:28:11.864Z,78.16
2022-11-01T08:31:00.722Z,78.54
2022-11-01T08:33:47.745Z,78.32
2022-11-01T08:36:34.613Z,78.20
2022-11-01T08:39:21.927Z,78.23
2022-11-01T08:42:09.587Z,78.85
2022-11-01T08:44:56.434Z,78.82
2022-11-01T08:47:43.394Z,78.52
2022-11-01T08:50:34.849Z,78.70
2022-11-01T08:53:32.795Z,78.44
2022-11-01T08:56:19.978Z,78.53
2022-11-01T08:59:09.282Z,78.44
2022-11-01T09:01:56.380Z,79.23
2022-11-01T09:04:43.346Z,78.09
2022-11-01T09:07:30.187Z,78.89
2022-11-01T09:10:16.991Z,78.39
2022-11-01T09:13:04.413Z,78.91
2022-11-01T09:15:51.750Z,78.59
2022-11-01T09:18:39.035Z,79.54
2022-11-01T09:21:30.577Z,79.94
2022-11-01T09:24:18.869Z,79.67
2022-11-01T09:27:05.727Z,79.28
2022-11-01T09:29:52.723Z,79.78
2022-11-01T09:32:39.726Z,79.97
2022-11-01T09:35:27.145Z,79.68
2022-11-01T09:38:21.393Z,79.92
2022-11-01T09:41:22.016Z,79.33
2022-11-01T09:44:10.563Z,79.47
2022-11-01T09:47:05.845Z,80.29
2022-11-01T09:49:56.832Z,80.62
2022-11-01T09:52:45.346Z,80.62
2022-11-01T09:55:37.191Z,80.76
2022-11-01T09:58:36.694Z,79.92
2022-11-01T10:01:57.681Z,80.66
2022-11-01T10:04:47.833Z,80.94
2022-11-01T10:07:34.719Z,80.98
2022-11-01T10:10:46.533Z,80.89
2022-11-01T10:13:36.391Z,80.63
2022-11-01T10:16:25.738Z,81.10
2022-11-01T10:19:20.707Z,80.59
2022-11-01T10:22:08.538Z,81.06
2022-11-01T10:25:01.322Z,80.79
2022-11-01T10:28:05.798Z,81.02
2022-11-01T10:31:05.022Z,81.17
2022-11-01T10:33:58.415Z,81.11
2022-11-01T10:36:58.213Z,80.67
2022-11-01T10:40:09.102Z,80.65
2022-11-01T10:42:56.979Z,81.40
2022-11-01T10:45:47.627Z,81.29
2022-11-01T10:48:52.370Z,81.09
2022-11-01T10:51:44.175Z,81.11
2022-11-01T10:54:40.078Z,81.81
2022-11-01T10:57:45.080Z,81.28
2022-11-01T11:00:37.677Z,81.06
2022-11-01T11:03:37.647Z,81.56
2022-11-01T11:06:29.010Z,81.59
2022-11-01T11:09:16.717Z,81.74
2022-11-01T11:12:04.676Z,81.46
2022-11-01T11:14:53.661Z,81.65
2022-11-01T11:17:44.993Z,81.35
2022-11-01T11:20:32.616Z,81.36
2022-11-01T11:23:22.044Z,81.85
2022-11-01T11:26:10.134Z,81.06
2022-11-01T11:29:02.318Z,81.38
2022-11-01T11:31:52.557Z,81.18
2022-11-01T11:34:48.224Z,81.18
2022-11-01T11:37:41.695Z,81.39
2022-11-01T11:40:44.024Z,81.13
2022-11-01T11:43:49.795Z,81.00
2022-11-01T11:46:41.474Z,81.08
2022-11-01T11:49:46.318Z,81.16
2022-11-01T11:52:43.288Z,80.83
2022-11-01T11:55:48.918Z,81.15
2022-11-01T11:58:48.587Z,80.75
2022-11-01T12:01:41.638Z,80.88
2022-11-01T12:04:37.986Z,80.70
2022-11-01T12:07:26.162Z,80.46
2022-11-01T12:10:13.983Z,80.88
2022-11-01T12:13:01.028Z,80.90
2022-11-01T12:15:53.414Z,81.18
2022-11-01T12:18:40.259Z,81.02
2022-11-01T12:21:39.265Z,80.81
2022-11-01T12:24:40.175Z,80.47
2022-11-01T12:27:33.778Z,80.50
2022-11-01T12:30:27.437Z,80.45
2022-11-01T12:33:19.299Z,80.34
2022-11-01T12:36:07.788Z,80.62
2022-11-01T12:38:57.504Z,80.62
2022-11-01T12:41:47.350Z,79.90
2022-11-01T12:44:52.650Z,80.04
2022-11-01T12:47:51.498Z,79.98
2022-11-01T12:50:53.312Z,80.00
2022-11-01T12:53:45.684Z,79.55
2022-11-01T12:56:32.526Z,79.64
2022-11-01T12:59:19.819Z,79.60
2022-11-01T13:02:16.499Z,80.21
2022-11-01T13:05:12.239Z,79.24
2022-11-01T13:08:09.442Z,79.96
2022-11-01T13:11:00.150Z,79.42
2022-11-01T13:13:54.594Z,79.55
2022-11-01T13:16:50.370Z,79.36
2022-11-01T13:19:47.807Z,79.86
2022-11-01T13:22:44.925Z,79.69
2022-11-01T13:25:47.366Z,79.16
2022-11-01T13:28:43.942Z,79.78
2022-11-01T13:32:00.335Z,78.95
2022-11-01T13:35:11.410Z,78.86
2022-11-01T13:38:05.690Z,79.54
2022-11-01T13:41:20.192Z,79.42
2022-11-01T13:44:14.442Z,79.28
2022-11-01T13:47:08.622Z,78.86
2022-11-01T13:50:01.857Z,79.28
2022-11-01T13:52:51.441Z,79.38
2022-11-01T13:55:49.635Z,79.69
2022-11-01T13:58:40.870Z,78.67
2022-11-01T14:01:49.573Z,78.99
2022-11-01T14:04:36.967Z,79.02
2022-11-01T14:07:29.568Z,79.13
2022-11-01T14:10:16.527Z,79.41
2022-11-01T14:13:05.092Z,79.32
2022-11-01T14:15:52.425Z,78.72
2022-11-01T14:18:39.409Z,79.24
2022-11-01T14:21:48.046Z,78.64
2022-11-01T14:24:53.186Z,78.40
2022-11-01T14:28:01.488Z,78.99
2022-11-01T14:30:53.255Z,79.05
2022-11-01T14:33:41.412Z,78.49
2022-11-01T14:36:31.038Z,78.79
2022-11-01T14:39:27.861Z,78.67
2022-11-01T14:42:18.498Z,78.41
2022-11-01T14:45:07.851Z,78.48
2022-11-01T14:47:59.133Z,78.77
2022-11-01T14:50:50.911Z,78.46
2022-11-01T14:53:41.406Z,78.76
2022-11-01T14:56:39.800Z,78.35
2022-11-01T14:59:38.773Z,78.30
2022-11-01T15:02:27.081Z,78.64
2022-11-01T15:05:21.408Z,78.49
2022-11-01T15:08:17.021Z,78.54
2022-11-01T15:11:04.941Z,78.43
2022-11-01T15:13:55.398Z,78.04
2022-11-01T15:16:44.415Z,78.17
2022-11-01T15:19:42.346Z,78.22
2022-11-01T15:22:36.731Z,78.12
2022-11-01T15:25:25.557Z,77.99
2022-11-01T15:28:14.142Z,78.06
2022-11-01T15:31:01.175Z,77.91
2022-11-01T15:33:52.324Z,77.99
2022-11-01T15:36:47.796Z,77.64
2022-11-01T15:39:43.827Z,77.79
2022-11-01T15:42:41.907Z,77.83
2022-11-01T15:45:40.532Z,77.91
2022-11-01T15:48:39.337Z,77.82
2022-11-01T15:51:28.482Z,77.79
2022-11-01T15:54:36.678Z,77.79
2022-11-01T15:57:30.366Z,77.70
2022-11-01T16:00:38.991Z,77.63
2022-11-01T16:03:35.337Z,77.99
2022-11-01T16:06:26.557Z,77.38
2022-11-01T16:09:18.171Z,78.10
2022-11-01T16:12:08.001Z,77.30
2022-11-01T16:14:57.009Z,77.43
2022-11-01T16:17:57.504Z,77.64
2022-11-01T16:21:03.451Z,77.52
2022-11-01T16:23:50.773Z,77.28
2022-11-01T16:26:37.680Z,77.10
2022-11-01T16:29:24.499Z,77.32
2022-11-01T16:32:25.110Z,77.15
2022-11-01T16:35:11.918Z,77.63
2022-11-01T16:38:03.393Z,78.03
2022-11-01T16:40:50.450Z,77.35
2022-11-01T16:43:37.284Z,77.40
2022-11-01T16:46:24.397Z,77.22
2022-11-01T16:49:13.375Z,77.45
2022-11-01T16:52:01.476Z,77.79
2022-11-01T16:54:48.336Z,77.28
2022-11-01T16:57:45.521Z,76.98
2022-11-01T17:00:34.225Z,77.89
2022-11-01T17:03:21.066Z,76.86
2022-11-01T17:06:09.586Z,77.59
2022-11-01T17:08:56.990Z,76.71
2022-11-01T17:11:49.507Z,76.84
2022-11-01T17:14:38.638Z,77.74
2022-11-01T17:17:32.435Z,76.75
2022-11-01T17:20:21.965Z,76.92
2022-11-01T17:23:10.718Z,76.82
2022-11-01T17:25:57.591Z,76.60
2022-11-01T17:28:49.518Z,76.82
2022-11-01T17:31:38.992Z,77.67
2022-11-01T17:34:25.951Z,76.88
2022-11-01T17:37:12.910Z,76.74
2022-11-01T17:39:59.998Z,77.11
2022-11-01T17:42:47.101Z,76.41
2022-11-01T17:45:34.264Z,76.64
2022-11-01T17:48:21.217Z,77.49
2022-11-01T17:51:08.124Z,76.77
2022-11-01T17:53:55.286Z,77.36
2022-11-01T17:56:43.709Z,76.93
2022-11-01T17:59:30.787Z,76.49
2022-11-01T18:02:17.725Z,76.50
2022-11-01T18:05:05.293Z,77.32
2022-11-01T18:08:01.333Z,77.60
2022-11-01T18:11:02.058Z,77.46
2022-11-01T18:14:06.697Z,77.16
2022-11-01T18:17:53.912Z,77.54
2022-11-01T18:21:20.207Z,76.20
2022-11-01T18:24:13.461Z,77.57
2022-11-01T18:27:04.375Z,77.59
2022-11-01T18:29:51.331Z,77.18
2022-11-01T18:32:54.785Z,76.83
2022-11-01T18:36:04.713Z,77.26
2022-11-01T18:39:01.759Z,76.90
2022-11-01T18:41:48.840Z,77.32
2022-11-01T18:44:35.754Z,76.92
2022-11-01T18:47:32.510Z,77.44
2022-11-01T18:50:21.433Z,77.15
2022-11-01T18:53:08.476Z,76.17
2022-11-01T18:55:55.420Z,77.25
2022-11-01T18:58:45.963Z,76.18
2022-11-01T19:01:41.146Z,76.04
2022-11-01T19:04:39.510Z,76.40
2022-11-01T19:07:44.508Z,76.69
2022-11-01T19:10:41.760Z,76.63
2022-11-01T19:13:45.246Z,77.42
2022-11-01T19:16:32.233Z,77.12
2022-11-01T19:19:19.856Z,77.35
2022-11-01T19:22:07.577Z,77.01
2022-11-01T19:24:58.669Z,76.10
2022-11-01T19:27:45.946Z,75.93
2022-11-01T19:30:41.992Z,77.45
2022-11-01T19:33:35.358Z,76.41
2022-11-01T19:36:25.809Z,77.25
2022-11-01T19:39:12.994Z,77.34
2022-11-01T19:41:59.937Z,76.66
2022-11-01T19:44:48.253Z,76.83
2022-11-01T19:47:54.009Z,76.85
2022-11-01T19:50:47.622Z,76.04
2022-11-01T19:53:40.722Z,76.61
2022-11-01T19:56:32.998Z,76.70
2022-11-01T19:59:21.124Z,76.32
2022-11-01T20:02:10.296Z,76.37
2022-11-01T20:04:57.513Z,77.40
2022-11-01T20:07:44.362Z,76.38
2022-11-01T20:10:31.805Z,76.99
2022-11-01T20:13:18.666Z,77.44
2022-11-01T20:16:05.607Z,76.44
2022-11-01T20:18:52.450Z,76.64
2022-11-01T20:21:39.264Z,77.39
2022-11-01T20:24:26.631Z,76.60
2022-11-01T20:27:14.644Z,77.54
2022-11-01T20:30:01.507Z,76.81
2022-11-01T20:32:48.567Z,77.50
2022-11-01T20:35:35.449Z,76.29
2022-11-01T20:38:22.305Z,76.74
2022-11-01T20:41:09.362Z,76.22
2022-11-01T20:43:56.213Z,77.45
2022-11-01T20:46:43.122Z,76.81
2022-11-01T20:49:30.689Z,77.11
2022-11-01T20:52:38.518Z,76.35
2022-11-01T20:55:24.972Z,76.99
2022-11-01T20:58:13.709Z,77.13
2022-11-01T21:01:00.604Z,77.48
2022-11-01T21:03:47.934Z,77.69
2022-11-01T21:06:38.618Z,77.16
2022-11-01T21:09:52.038Z,77.21
2022-11-01T21:12:56.523Z,77.03
2022-11-01T21:15:46.153Z,77.33
2022-11-01T21:18:33.006Z,76.96
2022-11-01T21:21:47.086Z,76.64
2022-11-01T21:24:48.790Z,76.95
2022-11-01T21:27:47.886Z,77.43
2022-11-01T21:30:41.221Z,77.85
2022-11-01T21:33:58.276Z,78.02
2022-11-01T21:36:54.610Z,77.18
2022-11-01T21:39:49.479Z,78.32
2022-11-01T21:42:52.571Z,77.83
2022-11-01T21:45:47.246Z,77.86
2022-11-01T21:48:41.586Z,77.90
2022-11-01T21:51:28.687Z,77.48
2022-11-01T21:54:15.824Z,78.45
2022-11-01T21:57:02.723Z,77.83
2022-11-01T21:59:50.158Z,77.49
2022-11-01T22:02:37.023Z,77.56
2022-11-01T22:05:25.082Z,77.24
2022-11-01T22:08:12.222Z,78.08
2022-11-01T22:10:59.068Z,78.53
2022-11-01T22:13:45.833Z,77.90
2022-11-01T22:16:32.672Z,77.53
2022-11-01T22:19:19.552Z,77.71
2022-11-01T22:22:09.639Z,77.94
2022-11-01T22:24:56.508Z,78.87
2022-11-01T22:27:43.362Z,78.90
2022-11-01T22:30:30.795Z,78.54
2022-11-01T22:33:19.562Z,77.73
2022-11-01T22:36:06.346Z,79.06
2022-11-01T22:39:01.776Z,79.05
2022-11-01T22:41:54.106Z,78.23
2022-11-01T22:44:51.186Z,78.55
2022-11-01T22:47:48.668Z,79.11
2022-11-01T22:50:44.894Z,78.50
2022-11-01T22:53:36.401Z,78.63
2022-11-01T22:56:23.574Z,77.81
2022-11-01T22:59:11.465Z,77.97
2022-11-01T23:01:58.526Z,78.95
2022-11-01T23:04:45.362Z,78.73
2022-11-01T23:07:48.386Z,78.62
2022-11-01T23:10:47.570Z,78.56
2022-11-01T23:13:47.234Z,79.38
2022-11-01T23:16:39.849Z,79.39
2022-11-01T23:19:31.284Z,79.55
2022-11-01T23:22:18.226Z,78.13
2022-11-01T23:25:05.238Z,78.19
2022-11-01T23:27:52.170Z,78.93
2022-11-01T23:30:39.206Z,79.54
2022-11-01T23:33:33.150Z,79.51
2022-11-01T23:36:20.463Z,78.49
2022-11-01T23:39:17.326Z,78.47
2022-11-01T23:42:10.597Z,79.14
2022-11-01T23:45:00.150Z,79.05
2022-11-01T23:47:57.632Z,79.16
2022-11-01T23:50:57.039Z,78.38
2022-11-01T23:53:52.823Z,78.42
2022-11-01T23:56:41.421Z,78.91
2022-11-01T23:59:28.534Z,78.85
